createdAt,value
2022-09-25T00:01:21.933Z,100863.16
2022-09-25T00:03:48.308Z,100782.50
2022-09-25T00:06:18.222Z,100800.34
2022-09-25T00:08:45.077Z,100810.66
2022-09-25T00:11:15.125Z,100864.59
2022-09-25T00:13:42.926Z,100875.19
2022-09-25T00:16:11.663Z,100808.22
2022-09-25T00:18:56.332Z,100870.00
2022-09-25T00:21:22.817Z,100870.00
2022-09-25T00:23:49.198Z,100820.75
2022-09-25T00:26:17.084Z,100846.34
2022-09-25T00:28:43.640Z,100795.44
2022-09-25T00:31:13.306Z,100774.28
2022-09-25T00:33:39.782Z,100855.50
2022-09-25T00:36:09.074Z,100860.88
2022-09-25T00:38:36.858Z,100816.00
2022-09-25T00:41:05.662Z,100860.19
2022-09-25T00:43:41.196Z,100865.63
2022-09-25T00:46:25.115Z,100820.78
2022-09-25T00:49:04.858Z,100693.53
2022-09-25T00:51:38.409Z,100854.81
2022-09-25T00:54:07.068Z,100772.66
2022-09-25T00:56:39.798Z,100868.38
2022-09-25T00:59:09.377Z,100870.13
2022-09-25T01:01:35.824Z,100699.72
2022-09-25T01:04:02.399Z,100824.81
2022-09-25T01:06:29.382Z,100813.53
2022-09-25T01:08:57.061Z,100801.31
2022-09-25T01:11:23.688Z,100727.94
2022-09-25T01:13:54.206Z,100819.53
2022-09-25T01:16:31.726Z,100853.53
2022-09-25T01:19:06.337Z,100862.72
2022-09-25T01:21:48.665Z,100864.22
2022-09-25T01:24:42.694Z,100870.41
2022-09-25T01:27:40.616Z,100874.75
2022-09-25T01:30:08.527Z,100869.50
2022-09-25T01:32:58.337Z,100796.81
2022-09-25T01:35:39.980Z,100876.44
2022-09-25T01:38:23.765Z,100822.34
2022-09-25T01:41:04.921Z,100878.16
2022-09-25T01:43:59.552Z,100873.81
2022-09-25T01:46:34.928Z,100875.59
2022-09-25T01:49:09.363Z,100833.47
2022-09-25T01:51:43.715Z,100832.69
2022-09-25T01:54:15.734Z,100881.22
2022-09-25T01:56:54.272Z,100879.59
2022-09-25T01:59:32.795Z,100836.44
2022-09-25T02:02:03.504Z,100862.06
2022-09-25T02:04:39.196Z,100881.47
2022-09-25T02:07:09.994Z,100874.84
2022-09-25T02:09:41.473Z,100883.16
2022-09-25T02:12:36.959Z,100857.03
2022-09-25T02:15:10.654Z,100871.28
2022-09-25T02:18:18.744Z,100886.81
2022-09-25T02:20:53.384Z,100852.78
2022-09-25T02:23:27.838Z,100824.22
2022-09-25T02:26:05.458Z,100885.47
2022-09-25T02:28:32.522Z,100878.09
2022-09-25T02:31:02.126Z,100883.94
2022-09-25T02:33:29.582Z,100886.16
2022-09-25T02:35:55.868Z,100875.66
2022-09-25T02:38:22.306Z,100798.16
2022-09-25T02:40:56.185Z,100802.72
2022-09-25T02:43:35.339Z,100778.81
2022-09-25T02:46:22.429Z,100842.72
2022-09-25T02:48:58.085Z,100885.25
2022-09-25T02:51:56.542Z,100884.50
2022-09-25T02:54:31.489Z,100888.09
2022-09-25T02:57:14.322Z,100889.22
2022-09-25T02:59:51.414Z,100817.16
2022-09-25T03:02:20.207Z,100806.22
2022-09-25T03:04:49.186Z,100892.25
2022-09-25T03:07:17.930Z,100834.59
2022-09-25T03:09:47.417Z,100890.13
2022-09-25T03:12:14.649Z,100863.81
2022-09-25T03:14:41.243Z,100889.34
2022-09-25T03:17:09.636Z,100751.72
2022-09-25T03:19:36.248Z,100902.38
2022-09-25T03:22:03.001Z,100894.44
2022-09-25T03:24:29.384Z,100890.88
2022-09-25T03:26:55.764Z,100865.75
2022-09-25T03:29:22.476Z,100871.19
2022-09-25T03:31:49.135Z,100806.19
2022-09-25T03:34:18.844Z,100896.72
2022-09-25T03:36:47.303Z,100819.25
2022-09-25T03:39:15.246Z,100896.41
2022-09-25T03:41:43.158Z,100902.44
2022-09-25T03:44:09.649Z,100814.44
2022-09-25T03:46:36.629Z,100837.09
2022-09-25T03:49:03.706Z,100869.81
2022-09-25T03:51:31.825Z,100853.38
2022-09-25T03:53:58.435Z,100895.66
2022-09-25T03:56:27.508Z,100818.75
2022-09-25T03:58:54.543Z,100899.22
2022-09-25T04:01:22.250Z,100895.84
2022-09-25T04:03:50.395Z,100796.84
2022-09-25T04:06:19.644Z,100804.06
2022-09-25T04:08:47.653Z,100897.66
2022-09-25T04:11:16.498Z,100703.28
2022-09-25T04:13:44.653Z,100901.97
2022-09-25T04:16:13.171Z,100896.69
2022-09-25T04:18:41.720Z,100881.69
2022-09-25T04:21:09.470Z,100842.00
2022-09-25T04:23:37.128Z,100893.59
2022-09-25T04:26:03.644Z,100866.59
2022-09-25T04:28:32.125Z,100884.25
2022-09-25T04:30:58.717Z,100877.88
2022-09-25T04:33:43.746Z,100871.75
2022-09-25T04:36:10.130Z,100788.59
2022-09-25T04:38:36.451Z,100724.91
2022-09-25T04:41:02.825Z,100827.78
2022-09-25T04:43:30.658Z,100815.06
2022-09-25T04:46:01.699Z,100834.84
2022-09-25T04:48:28.583Z,100874.22
2022-09-25T04:50:54.945Z,100782.03
2022-09-25T04:53:21.608Z,100720.38
2022-09-25T04:55:48.016Z,100805.88
2022-09-25T04:58:14.423Z,100878.44
2022-09-25T05:00:42.170Z,100907.00
2022-09-25T05:03:08.563Z,100815.78
2022-09-25T05:05:35.184Z,100874.53
2022-09-25T05:08:02.313Z,100897.69
2022-09-25T05:10:31.341Z,100890.44
2022-09-25T05:13:02.658Z,100802.47
2022-09-25T05:15:31.378Z,100908.19
2022-09-25T05:18:05.853Z,100905.63
2022-09-25T05:20:32.175Z,100911.91
2022-09-25T05:22:59.204Z,100905.88
2022-09-25T05:25:26.899Z,100883.78
2022-09-25T05:27:55.766Z,100905.28
2022-09-25T05:30:22.989Z,100902.91
2022-09-25T05:32:50.508Z,100841.97
2022-09-25T05:35:22.076Z,100901.00
2022-09-25T05:37:48.370Z,100819.47
2022-09-25T05:40:16.080Z,100895.78
2022-09-25T05:42:45.961Z,100881.91
2022-09-25T05:45:12.496Z,100847.69
2022-09-25T05:47:39.881Z,100894.94
2022-09-25T05:50:06.955Z,100906.50
2022-09-25T05:52:33.364Z,100911.00
2022-09-25T05:55:00.771Z,100909.38
2022-09-25T05:57:27.801Z,100909.97
2022-09-25T05:59:54.115Z,100877.31
2022-09-25T06:02:20.734Z,100895.97
2022-09-25T06:04:47.035Z,100909.53
2022-09-25T06:07:13.409Z,100910.59
2022-09-25T06:09:44.079Z,100845.41
2022-09-25T06:12:10.586Z,100921.78
2022-09-25T06:14:40.943Z,100887.91
2022-09-25T06:17:08.130Z,100789.19
2022-09-25T06:19:35.268Z,100842.44
2022-09-25T06:22:01.706Z,100919.66
2022-09-25T06:24:28.037Z,100908.38
2022-09-25T06:26:54.380Z,100923.63
2022-09-25T06:29:20.793Z,100925.97
2022-09-25T06:31:47.216Z,100901.09
2022-09-25T06:34:13.575Z,100863.16
2022-09-25T06:36:40.058Z,100936.06
2022-09-25T06:39:06.494Z,100931.06
2022-09-25T06:41:32.900Z,100926.81
2022-09-25T06:43:59.970Z,100925.81
2022-09-25T06:46:26.325Z,100922.25
2022-09-25T06:48:57.786Z,100888.22
2022-09-25T06:51:25.497Z,100927.41
2022-09-25T06:53:55.668Z,100886.63
2022-09-25T06:56:22.365Z,100879.50
2022-09-25T06:58:48.934Z,100930.13
2022-09-25T07:01:17.783Z,100932.34
2022-09-25T07:03:44.545Z,100734.97
2022-09-25T07:06:22.128Z,100929.16
2022-09-25T07:08:49.534Z,100931.09
2022-09-25T07:11:21.461Z,100924.66
2022-09-25T07:13:54.839Z,100939.25
2022-09-25T07:16:24.295Z,100931.97
2022-09-25T07:18:53.557Z,100940.56
2022-09-25T07:21:22.718Z,100919.50
2022-09-25T07:23:50.561Z,100874.84
2022-09-25T07:26:23.062Z,100810.38
2022-09-25T07:28:55.122Z,100899.22
2022-09-25T07:31:27.792Z,100932.75
2022-09-25T07:33:54.488Z,100942.00
2022-09-25T07:36:21.885Z,100946.03
2022-09-25T07:38:52.580Z,100924.69
2022-09-25T07:41:19.978Z,100945.84
2022-09-25T07:43:46.306Z,100947.16
2022-09-25T07:46:12.783Z,100927.81
2022-09-25T07:48:39.433Z,100943.75
2022-09-25T07:51:08.880Z,100924.59
2022-09-25T07:53:35.259Z,100932.78
2022-09-25T07:56:06.481Z,100957.34
2022-09-25T07:58:35.289Z,100889.91
2022-09-25T08:01:04.280Z,100926.75
2022-09-25T08:03:30.794Z,100918.19
2022-09-25T08:05:59.097Z,100911.31
2022-09-25T08:08:27.713Z,100959.34
2022-09-25T08:10:59.809Z,100952.56
2022-09-25T08:13:26.158Z,100954.97
2022-09-25T08:15:52.601Z,100963.47
2022-09-25T08:18:18.950Z,100956.78
2022-09-25T08:20:45.456Z,100957.25
2022-09-25T08:23:12.310Z,100914.41
2022-09-25T08:25:38.654Z,100895.53
2022-09-25T08:28:04.996Z,100965.25
2022-09-25T08:30:31.494Z,100971.75
2022-09-25T08:32:57.925Z,100962.34
2022-09-25T08:35:24.334Z,100965.06
2022-09-25T08:37:50.700Z,100945.78
2022-09-25T08:40:26.752Z,100957.91
2022-09-25T08:42:55.050Z,100951.53
2022-09-25T08:45:52.325Z,100951.69
2022-09-25T08:48:47.384Z,100961.69
2022-09-25T08:51:14.092Z,100861.19
2022-09-25T08:53:44.688Z,100958.91
2022-09-25T08:56:17.585Z,100961.19
2022-09-25T08:59:02.631Z,100929.78
2022-09-25T09:01:42.111Z,100869.50
2022-09-25T09:04:19.130Z,100971.97
2022-09-25T09:06:53.193Z,100891.16
2022-09-25T09:09:35.852Z,100954.69
2022-09-25T09:12:12.166Z,100976.44
2022-09-25T09:14:48.226Z,100972.00
2022-09-25T09:17:18.096Z,100969.22
2022-09-25T09:19:47.833Z,100940.81
2022-09-25T09:22:18.182Z,100958.41
2022-09-25T09:25:00.716Z,100973.84
2022-09-25T09:27:45.889Z,100975.47
2022-09-25T09:30:18.487Z,100974.66
2022-09-25T09:33:14.538Z,100975.53
2022-09-25T09:35:46.920Z,100968.03
2022-09-25T09:38:24.653Z,100927.53
2022-09-25T09:41:12.926Z,100971.69
2022-09-25T09:43:57.558Z,100964.06
2022-09-25T09:47:11.907Z,100968.56
2022-09-25T09:49:51.016Z,100832.22
2022-09-25T09:52:21.768Z,100961.47
2022-09-25T09:54:53.397Z,100928.13
2022-09-25T09:57:24.913Z,100939.88
2022-09-25T10:00:06.027Z,100965.78
2022-09-25T10:02:50.448Z,100965.19
2022-09-25T10:05:31.078Z,100960.09
2022-09-25T10:07:57.594Z,100906.69
2022-09-25T10:10:34.240Z,100847.28
2022-09-25T10:13:06.597Z,100970.09
2022-09-25T10:15:39.209Z,100938.59
2022-09-25T10:18:07.559Z,100938.81
2022-09-25T10:20:41.882Z,100924.75
2022-09-25T10:23:26.248Z,100905.28
2022-09-25T10:25:56.104Z,100938.44
2022-09-25T10:28:26.907Z,100889.75
2022-09-25T10:30:54.398Z,100952.59
2022-09-25T10:33:27.147Z,100959.56
2022-09-25T10:35:54.920Z,100987.22
2022-09-25T10:38:43.831Z,100960.59
2022-09-25T10:41:14.249Z,100797.72
2022-09-25T10:44:00.951Z,100958.97
2022-09-25T10:46:53.867Z,100949.91
2022-09-25T10:49:44.418Z,100945.81
2022-09-25T10:52:13.851Z,100909.09
2022-09-25T10:54:45.290Z,100816.78
2022-09-25T10:57:34.266Z,100919.22
2022-09-25T11:00:20.758Z,100934.41
2022-09-25T11:02:50.022Z,100845.59
2022-09-25T11:05:22.087Z,100945.59
2022-09-25T11:07:54.949Z,100910.56
2022-09-25T11:10:24.187Z,100930.91
2022-09-25T11:12:52.066Z,100946.22
2022-09-25T11:15:23.137Z,100920.88
2022-09-25T11:17:52.707Z,100963.91
2022-09-25T11:20:19.159Z,100962.00
2022-09-25T11:22:59.867Z,100955.16
2022-09-25T11:25:38.426Z,100890.50
2022-09-25T11:28:16.689Z,100957.50
2022-09-25T11:30:51.455Z,100950.94
2022-09-25T11:33:27.149Z,100905.72
2022-09-25T11:36:11.559Z,100957.16
2022-09-25T11:39:13.446Z,100962.47
2022-09-25T11:41:55.961Z,100936.16
2022-09-25T11:44:38.756Z,100940.81
2022-09-25T11:47:15.723Z,100950.69
2022-09-25T11:49:42.751Z,100945.09
2022-09-25T11:52:22.700Z,100950.69
2022-09-25T11:55:23.275Z,100948.50
2022-09-25T11:58:34.605Z,100876.22
2022-09-25T12:01:24.786Z,100942.38
2022-09-25T12:04:15.433Z,100937.09
2022-09-25T12:06:53.977Z,100898.25
2022-09-25T12:09:29.413Z,100922.59
2022-09-25T12:12:11.936Z,100881.34
2022-09-25T12:15:03.219Z,100926.56
2022-09-25T12:17:58.410Z,100931.28
2022-09-25T12:20:30.973Z,100945.84
2022-09-25T12:23:00.781Z,100946.16
2022-09-25T12:25:47.846Z,100955.03
2022-09-25T12:28:32.682Z,100948.44
2022-09-25T12:31:12.188Z,100941.50
2022-09-25T12:33:55.587Z,100935.88
2022-09-25T12:36:43.590Z,100874.78
2022-09-25T12:39:29.892Z,100919.34
2022-09-25T12:42:09.942Z,100917.31
2022-09-25T12:44:58.141Z,100770.38
2022-09-25T12:47:37.487Z,100908.09
2022-09-25T12:50:10.140Z,100878.34
2022-09-25T12:52:39.148Z,100903.16
2022-09-25T12:55:25.964Z,100813.03
2022-09-25T12:58:06.726Z,100902.22
2022-09-25T13:00:35.815Z,100892.03
2022-09-25T13:03:17.807Z,100863.34
2022-09-25T13:05:50.057Z,100888.97
2022-09-25T13:08:20.197Z,100903.34
2022-09-25T13:10:56.850Z,100870.31
2022-09-25T13:13:30.134Z,100893.47
2022-09-25T13:15:59.394Z,100891.66
2022-09-25T13:18:33.863Z,100815.59
2022-09-25T13:21:23.465Z,100878.78
2022-09-25T13:23:52.951Z,100834.16
2022-09-25T13:26:27.148Z,100846.84
2022-09-25T13:29:14.733Z,100796.69
2022-09-25T13:31:44.340Z,100896.13
2022-09-25T13:34:14.673Z,100870.78
2022-09-25T13:36:44.014Z,100884.56
2022-09-25T13:39:49.408Z,100841.91
2022-09-25T13:42:30.870Z,100880.72
2022-09-25T13:45:25.837Z,100882.75
2022-09-25T13:48:01.728Z,100802.22
2022-09-25T13:50:31.298Z,100867.06
2022-09-25T13:53:20.104Z,100865.72
2022-09-25T13:55:55.511Z,100880.00
2022-09-25T13:58:26.774Z,100862.09
2022-09-25T14:00:57.362Z,100861.22
2022-09-25T14:03:49.600Z,100855.66
2022-09-25T14:06:27.014Z,100794.31
2022-09-25T14:08:55.867Z,100848.41
2022-09-25T14:11:34.255Z,100845.09
2022-09-25T14:14:04.713Z,100853.50
2022-09-25T14:16:36.629Z,100859.03
2022-09-25T14:19:04.867Z,100815.09
2022-09-25T14:21:34.355Z,100831.16
2022-09-25T14:24:20.471Z,100839.34
2022-09-25T14:26:48.286Z,100836.53
2022-09-25T14:29:18.371Z,100836.47
2022-09-25T14:32:07.317Z,100841.81
2022-09-25T14:34:58.309Z,100857.59
2022-09-25T14:37:58.090Z,100839.97
2022-09-25T14:40:49.157Z,100835.00
2022-09-25T14:43:47.812Z,100861.38
2022-09-25T14:46:20.107Z,100863.22
2022-09-25T14:49:16.722Z,100864.66
2022-09-25T14:51:47.080Z,100838.09
2022-09-25T14:54:17.742Z,100864.53
2022-09-25T14:56:50.328Z,100823.66
2022-09-25T14:59:19.630Z,100858.50
2022-09-25T15:01:49.485Z,100750.56
2022-09-25T15:04:45.615Z,100846.44
2022-09-25T15:07:23.039Z,100851.50
2022-09-25T15:09:51.037Z,100845.53
2022-09-25T15:12:17.839Z,100853.69
2022-09-25T15:15:22.649Z,100850.81
2022-09-25T15:17:54.667Z,100847.81
2022-09-25T15:20:24.863Z,100846.22
2022-09-25T15:23:00.985Z,100843.56
2022-09-25T15:25:35.522Z,100695.41
2022-09-25T15:28:06.147Z,100743.38
2022-09-25T15:30:35.817Z,100808.13
2022-09-25T15:33:02.233Z,100801.88
2022-09-25T15:35:30.326Z,100784.03
2022-09-25T15:38:13.811Z,100823.94
2022-09-25T15:40:41.497Z,100830.81
2022-09-25T15:43:16.009Z,100836.13
2022-09-25T15:45:58.304Z,100838.53
2022-09-25T15:48:32.477Z,100834.38
2022-09-25T15:51:04.809Z,100791.63
2022-09-25T15:53:44.177Z,100822.22
2022-09-25T15:56:18.452Z,100836.19
2022-09-25T15:58:52.570Z,100832.66
2022-09-25T16:01:47.160Z,100783.25
2022-09-25T16:04:38.994Z,100836.25
2022-09-25T16:07:28.847Z,100845.09
2022-09-25T16:09:58.421Z,100841.38
2022-09-25T16:12:35.848Z,100834.00
2022-09-25T16:15:27.827Z,100852.09
2022-09-25T16:18:05.158Z,100739.13
2022-09-25T16:20:35.631Z,100684.91
2022-09-25T16:23:05.545Z,100845.75
2022-09-25T16:25:37.032Z,100733.81
2022-09-25T16:28:19.327Z,100815.53
2022-09-25T16:31:06.296Z,100860.59
2022-09-25T16:33:38.770Z,100863.25
2022-09-25T16:36:17.669Z,100790.25
2022-09-25T16:39:03.395Z,100861.72
2022-09-25T16:41:30.264Z,100858.53
2022-09-25T16:44:16.125Z,100863.63
2022-09-25T16:47:07.570Z,100854.84
2022-09-25T16:49:34.331Z,100879.09
2022-09-25T16:52:05.203Z,100857.94
2022-09-25T16:54:33.183Z,100816.66
2022-09-25T16:57:01.841Z,100864.47
2022-09-25T16:59:28.488Z,100833.81
2022-09-25T17:02:01.860Z,100806.53
2022-09-25T17:04:30.789Z,100831.88
2022-09-25T17:07:00.450Z,100838.53
2022-09-25T17:09:28.702Z,100875.00
2022-09-25T17:12:10.496Z,100782.28
2022-09-25T17:14:36.945Z,100778.09
2022-09-25T17:17:03.314Z,100656.66
2022-09-25T17:19:29.697Z,100868.75
2022-09-25T17:21:56.998Z,100809.41
2022-09-25T17:24:26.596Z,100847.72
2022-09-25T17:26:53.205Z,100795.59
2022-09-25T17:29:20.751Z,100878.81
2022-09-25T17:31:47.094Z,100746.94
2022-09-25T17:34:24.997Z,100803.91
2022-09-25T17:36:51.986Z,100877.88
2022-09-25T17:39:18.299Z,100811.66
2022-09-25T17:41:44.903Z,100829.53
2022-09-25T17:44:19.150Z,100880.75
2022-09-25T17:46:45.573Z,100869.47
2022-09-25T17:49:12.017Z,100807.50
2022-09-25T17:51:39.101Z,100855.84
2022-09-25T17:54:06.461Z,100891.31
2022-09-25T17:56:37.619Z,100859.75
2022-09-25T17:59:05.388Z,100863.59
2022-09-25T18:01:38.899Z,100889.94
2022-09-25T18:04:21.170Z,100831.72
2022-09-25T18:06:49.056Z,100895.00
2022-09-25T18:09:15.689Z,100805.47
2022-09-25T18:11:43.942Z,100888.94
2022-09-25T18:14:15.303Z,100875.47
2022-09-25T18:16:43.958Z,100892.34
2022-09-25T18:19:37.050Z,100888.31
2022-09-25T18:22:19.416Z,100887.81
2022-09-25T18:24:47.945Z,100863.50
2022-09-25T18:27:15.565Z,100885.31
2022-09-25T18:29:42.221Z,100728.91
2022-09-25T18:32:08.573Z,100779.06
2022-09-25T18:34:34.932Z,100865.47
2022-09-25T18:37:01.246Z,100879.78
2022-09-25T18:39:27.552Z,100814.19
2022-09-25T18:41:53.881Z,100859.03
2022-09-25T18:44:23.249Z,100891.78
2022-09-25T18:46:51.304Z,100897.38
2022-09-25T18:49:18.968Z,100856.00
2022-09-25T18:51:45.805Z,100841.81
2022-09-25T18:54:13.786Z,100887.13
2022-09-25T18:56:40.736Z,100817.09
2022-09-25T18:59:07.557Z,100878.38
2022-09-25T19:01:36.123Z,100827.84
2022-09-25T19:04:02.980Z,100819.94
2022-09-25T19:06:29.320Z,100883.81
2022-09-25T19:08:57.290Z,100858.59
2022-09-25T19:11:25.431Z,100867.47
2022-09-25T19:13:51.738Z,100866.56
2022-09-25T19:16:19.190Z,100827.19
2022-09-25T19:18:46.381Z,100877.84
2022-09-25T19:21:15.168Z,100838.38
2022-09-25T19:23:42.739Z,100828.38
2022-09-25T19:26:14.764Z,100720.66
2022-09-25T19:28:42.055Z,100818.94
2022-09-25T19:31:14.536Z,100884.94
2022-09-25T19:33:40.970Z,100866.44
2022-09-25T19:36:11.990Z,100809.31
2022-09-25T19:38:40.093Z,100871.91
2022-09-25T19:41:13.951Z,100876.69
2022-09-25T19:43:40.366Z,100859.00
2022-09-25T19:46:06.918Z,100831.13
2022-09-25T19:48:33.659Z,100837.47
2022-09-25T19:51:06.025Z,100867.44
2022-09-25T19:53:32.773Z,100869.50
2022-09-25T19:55:59.137Z,100777.97
2022-09-25T19:58:25.736Z,100806.53
2022-09-25T20:00:53.985Z,100786.69
2022-09-25T20:03:20.407Z,100844.84
2022-09-25T20:05:48.839Z,100822.44
2022-09-25T20:08:15.602Z,100779.41
2022-09-25T20:10:42.114Z,100845.72
2022-09-25T20:13:09.629Z,100766.25
2022-09-25T20:15:36.459Z,100858.28
2022-09-25T20:18:02.846Z,100739.91
2022-09-25T20:20:29.742Z,100848.94
2022-09-25T20:22:56.663Z,100798.13
2022-09-25T20:25:24.107Z,100846.69
2022-09-25T20:27:52.247Z,100812.59
2022-09-25T20:30:19.291Z,100824.94
2022-09-25T20:32:46.181Z,100773.25
2022-09-25T20:35:12.853Z,100794.56
2022-09-25T20:37:39.362Z,100733.91
2022-09-25T20:40:06.210Z,100779.44
2022-09-25T20:42:33.854Z,100825.16
2022-09-25T20:45:00.437Z,100809.00
2022-09-25T20:47:33.731Z,100824.66
2022-09-25T20:50:00.573Z,100763.84
2022-09-25T20:52:27.976Z,100763.19
2022-09-25T20:54:54.637Z,100827.09
2022-09-25T20:57:20.947Z,100737.91
2022-09-25T20:59:47.270Z,100771.78
2022-09-25T21:02:13.907Z,100818.22
2022-09-25T21:04:40.438Z,100751.47
2022-09-25T21:07:06.766Z,100739.72
2022-09-25T21:09:33.092Z,100808.94
2022-09-25T21:11:59.884Z,100726.88
2022-09-25T21:14:28.038Z,100805.44
2022-09-25T21:16:59.025Z,100798.97
2022-09-25T21:19:26.955Z,100788.41
2022-09-25T21:21:53.313Z,100784.34
2022-09-25T21:24:21.150Z,100785.09
2022-09-25T21:26:48.105Z,100804.38
2022-09-25T21:29:16.137Z,100792.19
2022-09-25T21:31:48.428Z,100785.25
2022-09-25T21:34:16.451Z,100601.94
2022-09-25T21:36:43.474Z,100759.56
2022-09-25T21:39:10.089Z,100770.09
2022-09-25T21:41:37.274Z,100779.59
2022-09-25T21:44:11.720Z,100778.75
2022-09-25T21:46:38.114Z,100657.91
2022-09-25T21:49:06.434Z,100769.72
2022-09-25T21:51:37.234Z,100773.44
2022-09-25T21:54:05.556Z,100723.28
2022-09-25T21:56:32.550Z,100740.50
2022-09-25T21:59:07.168Z,100744.91
2022-09-25T22:01:35.441Z,100721.75
2022-09-25T22:04:03.409Z,100761.63
2022-09-25T22:06:38.113Z,100724.19
2022-09-25T22:09:10.514Z,100727.75
2022-09-25T22:11:37.627Z,100753.44
2022-09-25T22:14:04.685Z,100703.34
2022-09-25T22:16:33.948Z,100746.88
2022-09-25T22:19:06.200Z,100752.41
2022-09-25T22:21:33.471Z,100683.22
2022-09-25T22:24:00.042Z,100738.56
2022-09-25T22:26:27.947Z,100742.41
2022-09-25T22:28:54.631Z,100734.06
2022-09-25T22:31:26.930Z,100736.94
2022-09-25T22:33:58.772Z,100728.41
2022-09-25T22:36:27.213Z,100725.84
2022-09-25T22:38:54.792Z,100649.72
2022-09-25T22:41:21.384Z,100711.53
2022-09-25T22:43:51.452Z,100723.00
2022-09-25T22:46:18.388Z,100672.00
2022-09-25T22:48:44.744Z,100410.03
2022-09-25T22:51:13.898Z,100715.38
2022-09-25T22:53:40.564Z,100693.56
2022-09-25T22:56:13.912Z,100710.25
2022-09-25T22:58:40.866Z,100700.78
2022-09-25T23:01:12.853Z,100695.72
2022-09-25T23:03:39.726Z,100631.41
2022-09-25T23:06:06.234Z,100704.63
2022-09-25T23:08:32.570Z,100662.66
2022-09-25T23:11:07.712Z,100690.66
2022-09-25T23:13:35.282Z,100692.31
2022-09-25T23:16:08.137Z,100679.47
2022-09-25T23:18:36.406Z,100682.44
2022-09-25T23:21:03.125Z,100672.53
2022-09-25T23:23:29.488Z,100606.06
2022-09-25T23:26:03.259Z,100670.41
2022-09-25T23:28:32.931Z,100589.38
2022-09-25T23:31:08.284Z,100652.94
2022-09-25T23:33:35.428Z,100591.69
2022-09-25T23:36:23.139Z,100634.59
2022-09-25T23:38:51.055Z,100639.38
2022-09-25T23:41:19.918Z,100646.25
2022-09-25T23:43:48.133Z,100619.84
2022-09-25T23:46:15.993Z,100640.84
2022-09-25T23:48:43.376Z,100632.22
2022-09-25T23:51:10.669Z,100560.50
2022-09-25T23:53:37.773Z,100604.84
2022-09-25T23:56:08.899Z,100624.31
2022-09-25T23:58:35.649Z,100593.31
